Time;durP1;ratioP1;P1;durP2;ratioP2;P2;SDS_P1;SDS_P2;PMS_P1;PMS_P2;Temp;Humidity;BMP_temperature;BMP_pressure;BME280_temperature;BME280_humidity;BME280_pressure;Samples;Min_cycle;Max_cycle;Signal;HPM_P1;HPM_P2
2021/03/20 00:02:44;;;;;;;74.30;13.53;;;-2.10;99.90;;;;;;5098973;28;20199;-50
2021/03/20 00:05:31;;;;;;;30.43;8.93;;;-2.10;99.90;;;;;;5110772;28;20203;-46
2021/03/20 00:08:21;;;;;;;26.83;8.97;;;-1.80;99.90;;;;;;5105732;28;20260;-48
2021/03/20 00:11:08;;;;;;;49.60;13.20;;;-2.00;99.90;;;;;;5100448;28;20209;-51
2021/03/20 00:13:57;;;;;;;64.00;13.20;;;-2.10;99.90;;;;;;5106601;28;20210;-51
2021/03/20 00:16:44;;;;;;;29.27;9.67;;;-1.90;99.90;;;;;;5100766;28;20640;-48
2021/03/20 00:19:31;;;;;;;51.33;12.20;;;-2.10;99.90;;;;;;5101584;28;20203;-51
2021/03/20 00:22:18;;;;;;;31.83;9.30;;;-2.20;99.90;;;;;;5102795;28;20198;-48
2021/03/20 00:25:07;;;;;;;24.57;8.13;;;-2.30;99.90;;;;;;5100115;28;20208;-49
2021/03/20 00:27:54;;;;;;;29.17;8.60;;;-2.10;99.90;;;;;;5107565;28;20601;-50
2021/03/20 00:30:41;;;;;;;46.60;10.70;;;-2.10;99.90;;;;;;5095836;28;20605;-47
2021/03/20 00:33:28;;;;;;;32.07;8.90;;;-2.10;99.90;;;;;;5102377;28;20286;-49
2021/03/20 00:36:16;;;;;;;21.17;7.33;;;-2.10;99.90;;;;;;5102642;28;20215;-52
2021/03/20 00:39:04;;;;;;;34.43;10.47;;;-2.10;99.90;;;;;;5093055;28;20634;-52
2021/03/20 00:41:52;;;;;;;42.27;10.43;;;-2.20;99.90;;;;;;5100486;28;20673;-54
2021/03/20 00:44:39;;;;;;;37.70;9.07;;;-2.20;99.90;;;;;;5103553;28;20253;-50
2021/03/20 00:47:26;;;;;;;41.67;10.97;;;-2.20;99.90;;;;;;5101227;28;20667;-51
2021/03/20 00:50:14;;;;;;;21.70;8.83;;;-2.10;99.90;;;;;;5098935;28;20200;-47
2021/03/20 00:53:01;;;;;;;27.60;7.67;;;-2.10;99.90;;;;;;5106483;28;20211;-51
2021/03/20 00:55:48;;;;;;;62.67;13.63;;;-2.10;99.90;;;;;;5107241;28;20256;-50
2021/03/20 00:58:37;;;;;;;187.67;40.03;;;-2.10;99.90;;;;;;5106221;28;20564;-51
2021/03/20 01:01:24;;;;;;;129.30;22.57;;;-2.20;99.90;;;;;;5094688;28;21179;-49
2021/03/20 01:04:11;;;;;;;85.07;15.50;;;-2.20;99.90;;;;;;5105612;28;20610;-49
2021/03/20 01:06:58;;;;;;;68.87;12.30;;;-2.20;99.90;;;;;;5101806;28;20313;-47
2021/03/20 01:09:45;;;;;;;51.33;11.53;;;-2.30;99.90;;;;;;5100789;28;20643;-47
2021/03/20 01:12:32;;;;;;;25.90;7.40;;;-2.30;99.90;;;;;;5103111;28;20289;-47
2021/03/20 01:15:20;;;;;;;49.97;10.80;;;-2.30;99.90;;;;;;5101353;28;20325;-50
2021/03/20 01:18:21;;;;;;;21.83;7.87;;;-2.30;99.90;;;;;;5108507;27;20785;-50
2021/03/20 01:21:08;;;;;;;25.87;7.63;;;-2.40;99.90;;;;;;5110888;28;20615;-52
2021/03/20 01:23:55;;;;;;;28.27;7.97;;;-2.40;99.90;;;;;;5133640;27;20304;-49
2021/03/20 01:26:42;;;;;;;41.40;10.30;;;-2.50;99.90;;;;;;5130424;27;20613;-49
2021/03/20 01:29:29;;;;;;;34.53;10.40;;;-2.20;99.90;;;;;;5130012;27;20638;-51
2021/03/20 01:32:16;;;;;;;65.40;16.13;;;-2.40;99.90;;;;;;5130369;27;20638;-52
2021/03/20 01:35:05;;;;;;;39.63;11.37;;;-2.30;99.90;;;;;;5130419;27;20624;-46
2021/03/20 01:37:52;;;;;;;32.17;8.93;;;-2.40;99.90;;;;;;5136702;27;20248;-47
2021/03/20 01:40:40;;;;;;;37.13;10.80;;;-2.30;99.90;;;;;;5123730;27;20616;-46
2021/03/20 01:43:28;;;;;;;24.27;9.40;;;-2.20;99.90;;;;;;5119874;27;20209;-47
2021/03/20 01:46:50;;;;;;;20.83;8.90;;;-2.20;99.90;;;;;;5139180;27;20654;-50
2021/03/20 01:49:38;;;;;;;33.57;10.57;;;-2.40;99.90;;;;;;5127321;27;20217;-49
2021/03/20 01:52:28;;;;;;;32.17;9.73;;;-2.40;99.90;;;;;;5122955;27;20223;-50
2021/03/20 01:55:16;;;;;;;27.53;9.00;;;-2.50;99.90;;;;;;5134704;27;20677;-46
2021/03/20 01:58:03;;;;;;;12.57;6.93;;;-2.50;99.90;;;;;;5128404;27;20666;-50
2021/03/20 02:00:50;;;;;;;11.63;4.23;;;-2.50;99.90;;;;;;5143097;27;20210;-51
2021/03/20 02:03:37;;;;;;;15.20;5.70;;;-2.40;99.90;;;;;;5133765;27;20639;-48
2021/03/20 02:06:24;;;;;;;14.80;6.20;;;-2.30;99.90;;;;;;5126148;27;20589;-49
2021/03/20 02:09:12;;;;;;;12.47;5.87;;;-2.30;99.90;;;;;;5126377;27;20699;-49
2021/03/20 02:12:03;;;;;;;13.57;5.37;;;-2.40;99.90;;;;;;5130710;27;20953;-46
2021/03/20 02:14:53;;;;;;;13.67;6.30;;;-2.50;99.90;;;;;;5122075;27;20596;-49
2021/03/20 02:17:44;;;;;;;18.43;7.70;;;-2.60;99.90;;;;;;5122894;27;20648;-45
2021/03/20 02:20:52;;;;;;;13.53;5.73;;;-2.60;99.90;;;;;;5118728;27;20628;-46
2021/03/20 02:24:10;;;;;;;16.10;5.47;;;-2.60;99.90;;;;;;5118487;27;20214;-46
2021/03/20 02:27:43;;;;;;;5.57;3.23;;;-2.70;99.90;;;;;;5125099;27;20615;-53
2021/03/20 02:30:59;;;;;;;24.43;6.93;;;-2.90;99.90;;;;;;5106766;27;20701;-49
2021/03/20 02:33:52;;;;;;;11.53;3.77;;;-3.00;99.90;;;;;;5109392;27;20589;-49
2021/03/20 02:36:42;;;;;;;8.60;3.83;;;-2.90;99.90;;;;;;5105752;27;21202;-50
2021/03/20 02:39:35;;;;;;;8.50;3.53;;;-3.00;99.90;;;;;;5111211;27;20650;-52
2021/03/20 02:42:26;;;;;;;15.40;5.23;;;-3.00;99.90;;;;;;5118067;27;20650;-48
2021/03/20 02:45:17;;;;;;;13.43;4.77;;;-3.10;99.90;;;;;;5127599;27;20616;-48
2021/03/20 02:48:09;;;;;;;12.83;4.27;;;-3.10;99.90;;;;;;5118233;27;20632;-48
2021/03/20 02:51:00;;;;;;;19.40;5.00;;;-3.20;99.90;;;;;;5115187;27;21379;-48
2021/03/20 02:53:49;;;;;;;6.50;2.43;;;-3.20;99.90;;;;;;5123725;27;20631;-47
2021/03/20 02:56:39;;;;;;;41.33;8.50;;;-3.00;99.90;;;;;;5100940;27;20632;-48
2021/03/20 02:59:29;;;;;;;16.10;4.43;;;-3.20;99.90;;;;;;5115879;27;20704;-47
2021/03/20 03:02:16;;;;;;;25.47;7.00;;;-3.20;99.90;;;;;;5107127;27;20698;-46
2021/03/20 03:05:07;;;;;;;8.37;3.37;;;-3.20;99.90;;;;;;5115128;27;20613;-46
2021/03/20 03:07:56;;;;;;;4.73;1.90;;;-3.20;99.90;;;;;;5106751;27;20688;-49
2021/03/20 03:10:45;;;;;;;15.87;4.93;;;-3.20;99.90;;;;;;5100593;27;20620;-48
2021/03/20 03:13:34;;;;;;;15.53;5.17;;;-3.30;99.90;;;;;;5118678;27;21500;-50
2021/03/20 03:16:23;;;;;;;18.43;6.10;;;-3.50;99.90;;;;;;5112177;27;20715;-53
2021/03/20 03:19:12;;;;;;;14.23;3.73;;;-3.60;99.90;;;;;;5110507;27;20638;-52
2021/03/20 03:21:59;;;;;;;11.87;3.53;;;-3.70;99.90;;;;;;5121745;27;20644;-54
2021/03/20 03:24:47;;;;;;;10.90;3.50;;;-3.70;99.90;;;;;;5118002;27;20647;-46
2021/03/20 03:27:35;;;;;;;12.07;3.07;;;-3.60;99.90;;;;;;5126854;27;22185;-48
2021/03/20 03:30:23;;;;;;;10.00;3.40;;;-3.70;99.90;;;;;;5108494;27;20594;-46
2021/03/20 03:33:12;;;;;;;15.70;3.57;;;-3.80;99.90;;;;;;5115376;27;20623;-49
2021/03/20 03:36:00;;;;;;;7.20;2.93;;;-3.80;99.90;;;;;;5106760;27;20604;-48
2021/03/20 03:38:50;;;;;;;10.60;3.10;;;-3.80;99.90;;;;;;5102595;28;21140;-51
2021/03/20 03:41:39;;;;;;;5.20;1.43;;;-4.00;99.90;;;;;;5119200;27;20702;-48
2021/03/20 03:44:26;;;;;;;11.23;3.37;;;-3.90;99.90;;;;;;5118879;27;20636;-50
2021/03/20 03:47:13;;;;;;;12.50;3.77;;;-3.90;99.90;;;;;;5097639;27;20601;-46
2021/03/20 03:50:01;;;;;;;3.43;1.17;;;-4.00;99.90;;;;;;5127436;27;20612;-45
2021/03/20 03:52:48;;;;;;;3.07;1.23;;;-3.90;99.90;;;;;;5106695;27;20699;-51
2021/03/20 03:55:36;;;;;;;7.17;3.23;;;-3.90;99.90;;;;;;5121610;27;20702;-54
2021/03/20 03:58:41;;;;;;;9.50;3.20;;;-4.00;99.90;;;;;;5119363;27;20642;-53
2021/03/20 04:01:36;;;;;;;3.93;1.30;;;-3.90;99.90;;;;;;5117372;27;21171;-46
2021/03/20 04:04:29;;;;;;;9.33;3.10;;;-4.00;99.90;;;;;;5116231;27;21398;-47
2021/03/20 04:07:45;;;;;;;8.27;2.37;;;-4.00;99.90;;;;;;5091469;27;20594;-48
2021/03/20 04:10:34;;;;;;;8.93;3.30;;;-4.00;99.90;;;;;;5107233;27;20692;-47
2021/03/20 04:13:25;;;;;;;5.93;2.73;;;-4.10;99.90;;;;;;5109276;27;20658;-49
2021/03/20 04:16:14;;;;;;;9.03;2.50;;;-4.00;99.90;;;;;;5103203;27;20606;-50
2021/03/20 04:19:04;;;;;;;8.50;2.93;;;-4.20;99.90;;;;;;5099186;27;20641;-53
2021/03/20 04:21:53;;;;;;;9.93;3.07;;;-4.20;99.90;;;;;;5105095;28;20605;-53
2021/03/20 04:24:42;;;;;;;7.80;3.17;;;-4.30;99.90;;;;;;5098724;27;20649;-50
2021/03/20 04:27:32;;;;;;;6.93;2.50;;;-4.30;99.90;;;;;;5097956;27;20998;-45
2021/03/20 04:30:23;;;;;;;11.07;3.67;;;-4.20;99.90;;;;;;5125128;27;20600;-47
2021/03/20 04:33:14;;;;;;;2.10;1.10;;;-4.50;99.90;;;;;;5111553;27;20617;-48
2021/03/20 04:36:03;;;;;;;9.00;3.03;;;-4.40;99.90;;;;;;5114937;27;20592;-45
2021/03/20 04:38:50;;;;;;;11.53;2.80;;;-4.40;99.90;;;;;;5116361;27;20597;-49
2021/03/20 04:41:37;;;;;;;6.97;3.30;;;-4.50;99.90;;;;;;5114826;27;20611;-50
2021/03/20 04:44:24;;;;;;;12.83;3.83;;;-4.50;99.90;;;;;;5121922;27;20612;-50
2021/03/20 04:47:13;;;;;;;12.97;3.97;;;-4.60;99.90;;;;;;5127637;27;21239;-48
2021/03/20 04:50:04;;;;;;;11.77;4.23;;;-4.70;99.90;;;;;;5120391;27;20612;-46
2021/03/20 04:52:52;;;;;;;10.40;3.37;;;-4.60;99.90;;;;;;5100170;27;20594;-53
2021/03/20 04:55:39;;;;;;;16.90;4.77;;;-4.70;99.90;;;;;;5112577;28;20612;-50
2021/03/20 04:58:34;;;;;;;11.07;3.30;;;-4.60;99.90;;;;;;5110854;27;20703;-47
2021/03/20 05:01:24;;;;;;;17.37;4.53;;;-4.60;99.90;;;;;;5118507;27;20617;-46
2021/03/20 05:04:16;;;;;;;13.00;3.90;;;-4.60;99.90;;;;;;5111689;27;20614;-49
2021/03/20 05:07:04;;;;;;;15.53;4.43;;;-4.70;99.90;;;;;;5123179;27;20616;-49
2021/03/20 05:09:56;;;;;;;19.97;5.10;;;-4.70;99.90;;;;;;5120563;27;20628;-53
2021/03/20 05:12:43;;;;;;;13.97;5.30;;;-4.70;99.90;;;;;;5109560;27;21016;-46
2021/03/20 05:15:31;;;;;;;11.00;3.93;;;-4.70;99.90;;;;;;5106540;28;20608;-46
2021/03/20 05:18:18;;;;;;;13.50;4.70;;;-4.70;99.90;;;;;;5117513;28;20677;-48
2021/03/20 05:21:05;;;;;;;12.33;4.07;;;-4.60;99.90;;;;;;5095621;28;20643;-50
2021/03/20 05:23:53;;;;;;;10.47;3.50;;;-4.40;99.90;;;;;;5111620;28;20644;-52
2021/03/20 05:26:40;;;;;;;9.93;3.50;;;-4.40;99.90;;;;;;5115723;28;20632;-52
2021/03/20 05:29:27;;;;;;;13.20;4.33;;;-4.30;99.90;;;;;;5114623;28;20720;-50
2021/03/20 05:32:15;;;;;;;15.27;4.33;;;-4.20;99.90;;;;;;5113345;28;21048;-51
2021/03/20 05:35:04;;;;;;;14.87;4.93;;;-4.30;99.90;;;;;;5102134;28;20610;-48
2021/03/20 05:37:51;;;;;;;11.07;3.70;;;-4.30;99.90;;;;;;5114535;28;20728;-50
2021/03/20 05:40:39;;;;;;;11.43;4.27;;;-4.30;99.90;;;;;;5103129;28;21353;-50
2021/03/20 05:43:35;;;;;;;15.57;4.93;;;-4.10;99.90;;;;;;5101130;28;20600;-47
2021/03/20 05:46:27;;;;;;;12.27;4.60;;;-4.30;99.90;;;;;;5102183;28;20618;-52
2021/03/20 05:49:43;;;;;;;14.07;4.73;;;-4.10;99.90;;;;;;5096136;28;21302;-46
2021/03/20 05:52:37;;;;;;;12.57;5.27;;;-4.00;99.90;;;;;;5114494;28;20609;-48
2021/03/20 05:55:30;;;;;;;14.93;5.33;;;-3.90;99.90;;;;;;5112865;28;21055;-47
2021/03/20 05:58:34;;;;;;;17.33;5.00;;;-3.90;99.90;;;;;;5109366;28;20639;-51
2021/03/20 06:01:29;;;;;;;14.50;5.90;;;-3.60;99.90;;;;;;5109097;28;21146;-49
2021/03/20 06:04:34;;;;;;;13.50;4.70;;;-3.60;99.90;;;;;;5111199;27;20658;-48
2021/03/20 06:07:46;;;;;;;19.07;5.40;;;-3.40;99.90;;;;;;5119490;27;21123;-47
2021/03/20 06:10:40;;;;;;;12.43;4.90;;;-3.30;99.90;;;;;;5106378;27;21171;-48
2021/03/20 06:13:55;;;;;;;15.73;5.67;;;-3.20;99.90;;;;;;5108068;27;20605;-49
2021/03/20 06:16:46;;;;;;;15.73;5.97;;;-3.20;99.90;;;;;;5110443;27;20975;-48
2021/03/20 06:19:39;;;;;;;6.87;2.57;;;-3.20;99.90;;;;;;5115301;27;20612;-49
2021/03/20 06:22:53;;;;;;;14.00;5.10;;;-3.10;99.90;;;;;;5115251;27;20679;-49
2021/03/20 06:26:02;;;;;;;20.17;7.40;;;-3.00;99.90;;;;;;5115226;27;20600;-54
2021/03/20 06:28:51;;;;;;;29.43;9.90;;;-3.20;99.90;;;;;;5113813;27;20643;-55
2021/03/20 06:31:41;;;;;;;21.90;7.63;;;-3.20;99.90;;;;;;5129089;27;20608;-55
2021/03/20 06:34:29;;;;;;;19.33;6.60;;;-3.20;99.90;;;;;;5109458;27;20618;-57
2021/03/20 06:37:18;;;;;;;15.73;5.57;;;-3.00;99.90;;;;;;5116312;27;20708;-52
2021/03/20 06:40:11;;;;;;;18.60;6.77;;;-2.70;99.90;;;;;;5128495;27;20608;-53
2021/03/20 06:42:58;;;;;;;20.70;6.37;;;-2.50;99.90;;;;;;5104616;27;20720;-55
2021/03/20 06:45:45;;;;;;;19.50;5.67;;;-2.40;99.90;;;;;;5117087;27;20640;-56
2021/03/20 06:48:33;;;;;;;17.87;6.13;;;-2.10;99.90;;;;;;5106604;27;20267;-55
2021/03/20 06:51:20;;;;;;;17.17;5.73;;;-2.20;99.90;;;;;;5113272;27;20636;-54
2021/03/20 06:54:07;;;;;;;12.50;5.23;;;-2.00;99.90;;;;;;5124710;27;20315;-55
2021/03/20 06:56:53;;;;;;;29.63;9.17;;;-1.90;99.90;;;;;;5099915;27;20650;-54
2021/03/20 06:59:40;;;;;;;25.73;9.30;;;-1.90;99.90;;;;;;5129049;27;20725;-54
2021/03/20 07:02:31;;;;;;;29.43;7.70;;;-1.80;99.90;;;;;;5108397;27;20643;-52
2021/03/20 07:05:21;;;;;;;16.27;5.73;;;-1.80;99.90;;;;;;5120239;27;20238;-55
2021/03/20 07:08:22;;;;;;;22.90;6.20;;;-1.60;99.90;;;;;;5110640;27;20207;-55
2021/03/20 07:11:18;;;;;;;16.03;5.87;;;-1.60;99.90;;;;;;5105603;27;20207;-56
2021/03/20 07:14:07;;;;;;;23.70;7.33;;;-1.40;99.90;;;;;;5101887;28;20210;-53
2021/03/20 07:16:56;;;;;;;20.80;5.93;;;-1.40;99.90;;;;;;5114813;27;20237;-54
2021/03/20 07:19:52;;;;;;;0.30;0.30;;;-0.90;99.90;;;;;;5129734;27;20207;-52
2021/03/20 07:22:43;;;;;;;8.93;3.37;;;-0.40;99.90;;;;;;5105828;27;20599;-56
2021/03/20 07:25:35;;;;;;;16.80;5.30;;;-0.40;99.90;;;;;;5120560;27;20199;-53
2021/03/20 07:28:23;;;;;;;18.00;5.07;;;-0.40;99.90;;;;;;5105762;27;20566;-54
2021/03/20 07:31:11;;;;;;;17.00;5.63;;;0.00;99.90;;;;;;5120862;27;20246;-57
2021/03/20 07:34:15;;;;;;;15.07;5.43;;;-0.10;99.90;;;;;;5101423;28;20206;-54
2021/03/20 07:37:05;;;;;;;13.07;5.17;;;-0.30;99.90;;;;;;5124831;27;20815;-55
2021/03/20 07:39:54;;;;;;;12.10;4.77;;;-0.70;99.90;;;;;;5112604;28;20235;-54
2021/03/20 07:42:42;;;;;;;17.20;5.43;;;-1.00;99.90;;;;;;5112263;28;20213;-52
2021/03/20 07:45:29;;;;;;;15.33;5.40;;;-1.20;99.90;;;;;;5112569;28;20645;-55
2021/03/20 07:48:21;;;;;;;15.10;5.97;;;-1.80;99.90;;;;;;5111787;28;20196;-54
2021/03/20 07:51:11;;;;;;;13.93;4.60;;;-2.10;99.90;;;;;;5112198;28;20336;-56
2021/03/20 07:53:58;;;;;;;20.80;6.57;;;-2.30;99.90;;;;;;5125026;27;20198;-53
2021/03/20 07:56:46;;;;;;;17.63;6.10;;;-2.50;99.90;;;;;;5113447;27;20285;-56
2021/03/20 07:59:33;;;;;;;19.93;6.00;;;-2.50;99.90;;;;;;5130092;27;20593;-52
2021/03/20 08:02:28;;;;;;;16.27;6.33;;;-2.10;99.90;;;;;;5113860;27;20636;-54
2021/03/20 08:05:28;;;;;;;16.73;5.90;;;-1.40;99.90;;;;;;5125456;27;21131;-54
2021/03/20 08:08:20;;;;;;;12.77;5.03;;;-1.10;99.90;;;;;;5108446;28;20740;-53
2021/03/20 08:11:25;;;;;;;18.93;5.63;;;-0.60;99.90;;;;;;5110970;27;20593;-55
2021/03/20 08:14:16;;;;;;;18.13;6.53;;;-0.10;99.90;;;;;;5110303;27;20203;-52
2021/03/20 08:17:03;;;;;;;12.40;4.10;;;0.50;99.90;;;;;;5105242;27;20294;-54
2021/03/20 08:19:50;;;;;;;15.57;5.43;;;1.20;99.90;;;;;;5117166;27;20250;-55
2021/03/20 08:22:59;;;;;;;12.83;4.97;;;1.70;98.60;;;;;;5129869;27;20747;-54
2021/03/20 08:25:53;;;;;;;17.43;5.17;;;2.10;94.10;;;;;;5127150;27;20637;-55
2021/03/20 08:28:48;;;;;;;14.20;4.50;;;2.40;92.80;;;;;;5104364;27;20199;-56
2021/03/20 08:31:51;;;;;;;12.73;4.63;;;1.50;89.50;;;;;;5126667;27;20194;-53
2021/03/20 08:35:03;;;;;;;8.03;3.13;;;0.80;91.60;;;;;;5112462;28;20198;-56
2021/03/20 08:38:16;;;;;;;11.80;4.83;;;0.30;90.70;;;;;;5124179;27;20214;-52
2021/03/20 08:41:07;;;;;;;15.50;4.90;;;0.60;92.10;;;;;;5118573;27;20194;-53
2021/03/20 08:44:12;;;;;;;13.57;5.17;;;1.00;91.80;;;;;;5112717;27;20633;-57
2021/03/20 08:47:34;;;;;;;15.00;5.00;;;1.40;90.80;;;;;;5122776;27;20195;-52
2021/03/20 08:50:25;;;;;;;14.53;4.97;;;1.90;89.90;;;;;;5111605;27;20238;-51
2021/03/20 08:53:16;;;;;;;9.30;3.67;;;2.30;85.10;;;;;;5119069;27;20546;-54
2021/03/20 08:56:10;;;;;;;12.97;4.90;;;2.00;80.30;;;;;;5129067;27;20213;-53
2021/03/20 08:58:58;;;;;;;17.00;5.43;;;2.20;82.70;;;;;;5120172;27;20214;-53
2021/03/20 09:01:47;;;;;;;13.53;4.97;;;2.80;87.30;;;;;;5117391;27;20230;-55
2021/03/20 09:04:35;;;;;;;12.87;4.53;;;3.20;85.90;;;;;;5111727;27;20272;-53
2021/03/20 09:07:23;;;;;;;5.13;2.07;;;2.70;78.10;;;;;;5105041;28;20278;-56
2021/03/20 09:10:15;;;;;;;9.40;3.70;;;1.90;74.80;;;;;;5112176;28;20599;-55
2021/03/20 09:13:11;;;;;;;16.37;5.07;;;1.50;78.30;;;;;;5126155;27;20229;-55
2021/03/20 09:15:59;;;;;;;20.87;6.20;;;1.30;76.60;;;;;;5128857;27;20243;-51
2021/03/20 09:18:46;;;;;;;15.17;4.77;;;1.00;79.30;;;;;;5112447;28;20207;-55
2021/03/20 09:21:35;;;;;;;29.93;9.93;;;1.50;79.80;;;;;;5107980;28;20224;-51
2021/03/20 09:24:22;;;;;;;11.63;5.07;;;2.30;87.90;;;;;;5122187;28;20264;-51
2021/03/20 09:27:10;;;;;;;15.27;5.30;;;3.10;84.50;;;;;;5123522;28;20191;-53
2021/03/20 09:30:12;;;;;;;15.77;4.83;;;3.50;82.50;;;;;;5112673;28;20213;-54
2021/03/20 09:33:01;;;;;;;13.77;4.13;;;3.10;76.60;;;;;;5109109;28;20564;-52
2021/03/20 09:35:49;;;;;;;16.30;4.37;;;2.20;68.10;;;;;;5121830;28;20202;-55
2021/03/20 09:38:47;;;;;;;10.90;3.67;;;1.30;70.10;;;;;;5119505;27;20222;-52
2021/03/20 09:41:35;;;;;;;11.13;3.50;;;1.50;75.80;;;;;;5127631;27;20571;-52
2021/03/20 09:44:23;;;;;;;12.17;4.10;;;2.30;74.50;;;;;;5117258;27;20274;-54
2021/03/20 09:47:25;;;;;;;9.93;2.70;;;2.30;69.30;;;;;;5122586;27;20569;-52
2021/03/20 09:50:32;;;;;;;12.80;4.60;;;1.90;70.40;;;;;;5113789;27;20204;-56
2021/03/20 09:53:36;;;;;;;13.53;5.43;;;1.90;70.60;;;;;;5114992;28;20611;-58
2021/03/20 09:56:28;;;;;;;7.33;2.73;;;2.30;75.70;;;;;;5114532;27;20195;-55
2021/03/20 09:59:38;;;;;;;9.27;3.83;;;2.30;71.20;;;;;;5129508;27;20656;-55
2021/03/20 10:02:46;;;;;;;10.67;4.30;;;1.80;67.70;;;;;;5130097;27;20240;-54
2021/03/20 10:05:33;;;;;;;9.50;4.17;;;1.50;69.40;;;;;;5132773;27;20252;-58
2021/03/20 10:08:21;;;;;;;12.97;4.20;;;1.50;72.30;;;;;;5114951;27;20206;-50
2021/03/20 10:11:16;;;;;;;13.93;5.67;;;1.60;70.60;;;;;;5122261;27;20245;-57
2021/03/20 10:14:17;;;;;;;14.77;5.50;;;1.80;70.60;;;;;;5127953;27;20282;-56
2021/03/20 10:17:05;;;;;;;12.93;4.80;;;1.60;75.40;;;;;;5121799;27;20301;-57
2021/03/20 10:19:54;;;;;;;6.03;2.20;;;1.60;75.20;;;;;;5122476;27;20193;-51
2021/03/20 10:22:48;;;;;;;13.20;4.57;;;0.90;75.50;;;;;;5123646;27;20207;-58
2021/03/20 10:25:35;;;;;;;12.37;4.53;;;0.70;77.20;;;;;;5124283;27;20227;-56
2021/03/20 10:28:28;;;;;;;15.17;5.10;;;0.80;77.40;;;;;;5126306;27;20251;-57
2021/03/20 10:31:17;;;;;;;9.67;2.90;;;0.90;74.50;;;;;;5118091;27;20199;-56
2021/03/20 10:34:07;;;;;;;12.97;4.63;;;1.60;74.50;;;;;;5116377;27;20337;-54
2021/03/20 10:37:03;;;;;;;9.30;3.03;;;1.70;72.20;;;;;;5118770;27;20232;-55
2021/03/20 10:40:04;;;;;;;10.73;4.93;;;1.90;75.70;;;;;;5117771;27;20203;-56
2021/03/20 10:42:53;;;;;;;8.80;3.67;;;2.30;72.60;;;;;;5115830;27;20542;-54
2021/03/20 10:45:41;;;;;;;12.63;4.90;;;2.40;75.50;;;;;;5123001;27;20201;-54
2021/03/20 10:48:29;;;;;;;14.07;5.00;;;2.30;74.60;;;;;;5109819;27;20195;-56
2021/03/20 10:51:16;;;;;;;8.63;4.00;;;2.40;71.90;;;;;;5129044;27;20630;-54
2021/03/20 10:54:08;;;;;;;9.00;3.37;;;2.00;72.40;;;;;;5128654;27;20198;-56
2021/03/20 10:56:55;;;;;;;12.57;4.57;;;1.90;73.70;;;;;;5119167;27;20255;-55
2021/03/20 10:59:44;;;;;;;10.57;4.07;;;1.40;69.70;;;;;;5118709;27;20240;-55
2021/03/20 11:02:33;;;;;;;7.30;2.57;;;1.10;71.90;;;;;;5129636;27;20195;-52
2021/03/20 11:05:32;;;;;;;10.80;4.10;;;0.70;72.60;;;;;;5123356;27;20281;-52
2021/03/20 11:08:25;;;;;;;7.13;3.03;;;0.50;77.20;;;;;;5119532;27;20215;-52
2021/03/20 11:11:16;;;;;;;8.10;3.63;;;0.90;77.90;;;;;;5116916;27;20286;-54
2021/03/20 11:14:05;;;;;;;12.00;3.73;;;1.30;74.20;;;;;;5106571;27;20283;-54
2021/03/20 11:16:53;;;;;;;11.93;3.87;;;1.50;71.70;;;;;;5123469;27;20841;-52
2021/03/20 11:19:41;;;;;;;10.73;3.40;;;2.10;71.50;;;;;;5113630;27;20234;-55
2021/03/20 11:22:37;;;;;;;8.83;3.33;;;1.30;64.40;;;;;;5119242;27;20289;-51
2021/03/20 11:25:33;;;;;;;6.60;2.70;;;1.40;71.10;;;;;;5109012;27;20211;-53
2021/03/20 11:28:28;;;;;;;8.77;3.13;;;1.80;64.50;;;;;;5123091;27;20190;-55
2021/03/20 11:31:15;;;;;;;7.07;2.93;;;1.90;65.90;;;;;;5120587;27;20207;-53
2021/03/20 11:34:02;;;;;;;4.07;2.00;;;1.70;70.40;;;;;;5122324;27;20290;-55
2021/03/20 11:36:49;;;;;;;11.30;4.10;;;2.10;70.20;;;;;;5123067;27;20216;-52
2021/03/20 11:39:37;;;;;;;10.77;3.57;;;1.80;63.30;;;;;;5120917;27;20251;-55
2021/03/20 11:42:26;;;;;;;11.97;3.93;;;2.00;66.70;;;;;;5108505;27;20199;-55
2021/03/20 11:45:17;;;;;;;11.93;3.27;;;2.20;66.20;;;;;;5114269;27;20227;-53
2021/03/20 11:48:12;;;;;;;5.47;1.93;;;2.40;65.60;;;;;;5128468;27;20193;-54
2021/03/20 11:50:59;;;;;;;10.57;3.40;;;2.30;67.40;;;;;;5109034;27;20195;-54
2021/03/20 11:53:47;;;;;;;5.23;2.30;;;2.60;72.40;;;;;;5123661;27;20922;-53
2021/03/20 11:56:36;;;;;;;9.90;3.40;;;2.60;58.40;;;;;;5124575;27;20269;-56
2021/03/20 11:59:46;;;;;;;6.80;2.90;;;2.70;58.50;;;;;;5101932;28;20207;-56
2021/03/20 12:02:39;;;;;;;10.00;2.83;;;3.00;59.30;;;;;;5104970;28;20248;-56
2021/03/20 12:05:30;;;;;;;9.83;3.00;;;2.70;59.20;;;;;;5111950;27;20646;-54
2021/03/20 12:08:22;;;;;;;2.07;1.10;;;3.00;61.20;;;;;;5122631;27;20213;-57
2021/03/20 12:11:10;;;;;;;5.20;2.10;;;2.80;60.90;;;;;;5118027;27;20191;-55
2021/03/20 12:13:58;;;;;;;13.60;3.50;;;2.70;61.40;;;;;;5124108;27;20199;-53
2021/03/20 12:16:45;;;;;;;13.47;3.83;;;2.50;58.60;;;;;;5128004;27;20246;-57
2021/03/20 12:19:32;;;;;;;12.40;3.90;;;2.80;59.60;;;;;;5118968;27;20248;-52
2021/03/20 12:22:36;;;;;;;9.87;3.73;;;2.80;58.50;;;;;;5122607;27;20654;-51
2021/03/20 12:25:34;;;;;;;8.00;3.47;;;3.00;61.20;;;;;;5107537;27;20271;-53
2021/03/20 12:28:35;;;;;;;8.60;3.10;;;3.00;56.60;;;;;;5124402;27;20203;-54
2021/03/20 12:31:30;;;;;;;7.30;3.13;;;3.10;57.10;;;;;;5117252;27;20255;-52
2021/03/20 12:34:27;;;;;;;8.77;3.30;;;3.20;55.10;;;;;;5118725;27;20209;-54
2021/03/20 12:37:18;;;;;;;10.10;2.73;;;3.30;56.20;;;;;;5109111;27;20194;-54
2021/03/20 12:40:06;;;;;;;4.23;1.93;;;4.30;56.30;;;;;;5129645;27;20210;-52
2021/03/20 12:42:53;;;;;;;9.03;2.70;;;4.50;56.40;;;;;;5113992;27;20203;-55
2021/03/20 12:45:40;;;;;;;7.40;3.07;;;4.40;53.00;;;;;;5103545;27;20286;-55
2021/03/20 12:48:33;;;;;;;8.50;2.73;;;4.40;52.40;;;;;;5107826;27;20194;-57
2021/03/20 12:51:21;;;;;;;8.90;2.67;;;4.80;54.60;;;;;;5122097;27;20566;-55
2021/03/20 12:54:08;;;;;;;9.57;3.43;;;4.50;53.20;;;;;;5124871;27;20213;-55
2021/03/20 12:56:55;;;;;;;6.40;2.53;;;3.30;53.90;;;;;;5105352;27;20199;-55
2021/03/20 12:59:42;;;;;;;9.97;2.80;;;2.90;55.20;;;;;;5120910;27;20659;-54
2021/03/20 13:02:29;;;;;;;11.03;3.87;;;2.50;55.50;;;;;;5111808;27;20188;-54
2021/03/20 13:05:21;;;;;;;10.20;3.70;;;2.50;58.30;;;;;;5122839;27;20206;-51
2021/03/20 13:08:09;;;;;;;9.60;3.57;;;2.60;57.50;;;;;;5129697;27;20854;-51
2021/03/20 13:10:56;;;;;;;8.10;2.73;;;2.70;56.30;;;;;;5105796;28;20241;-56
2021/03/20 13:13:43;;;;;;;9.37;3.50;;;2.90;56.60;;;;;;5118428;27;20660;-52
2021/03/20 13:16:30;;;;;;;10.90;3.30;;;2.90;58.70;;;;;;5112651;28;20262;-55
2021/03/20 13:19:17;;;;;;;11.53;3.90;;;3.00;58.00;;;;;;5114424;28;20226;-54
2021/03/20 13:22:05;;;;;;;7.67;3.30;;;3.50;57.10;;;;;;5109320;28;20673;-52
2021/03/20 13:24:53;;;;;;;8.80;3.33;;;3.10;53.60;;;;;;5116361;28;20272;-55
2021/03/20 13:27:40;;;;;;;9.60;3.27;;;2.50;53.20;;;;;;5111100;28;20203;-51
2021/03/20 13:30:28;;;;;;;3.53;1.80;;;2.50;54.90;;;;;;5106354;28;20198;-51
2021/03/20 13:33:15;;;;;;;14.73;3.70;;;2.50;55.70;;;;;;5118863;28;20248;-51
2021/03/20 13:36:02;;;;;;;8.30;3.43;;;2.10;54.90;;;;;;5117341;28;20741;-53
2021/03/20 13:38:50;;;;;;;16.87;5.23;;;1.50;56.00;;;;;;5109340;28;20272;-54
2021/03/20 13:41:37;;;;;;;10.97;3.90;;;1.70;56.90;;;;;;5115958;28;20264;-54
2021/03/20 13:44:24;;;;;;;8.80;3.57;;;2.00;57.30;;;;;;5122570;28;20568;-54
2021/03/20 13:47:12;;;;;;;10.77;2.93;;;2.00;56.90;;;;;;5121247;28;20208;-55
2021/03/20 13:49:59;;;;;;;14.90;3.83;;;1.90;57.90;;;;;;5104835;28;20256;-55
2021/03/20 13:52:46;;;;;;;10.77;3.90;;;1.60;57.60;;;;;;5123035;28;20210;-53
2021/03/20 13:55:33;;;;;;;9.17;3.40;;;1.80;57.80;;;;;;5122925;28;20226;-55
2021/03/20 13:58:21;;;;;;;3.80;1.03;;;1.70;56.20;;;;;;5113145;28;20215;-56
2021/03/20 14:01:08;;;;;;;8.20;3.27;;;2.70;57.80;;;;;;5106165;28;20191;-53
2021/03/20 14:03:55;;;;;;;3.23;1.50;;;3.70;53.30;;;;;;5115624;28;20211;-55
2021/03/20 14:06:42;;;;;;;8.83;2.90;;;3.00;53.20;;;;;;5128979;28;20202;-53
2021/03/20 14:09:29;;;;;;;7.47;2.40;;;2.00;54.90;;;;;;5116541;28;20199;-54
2021/03/20 14:12:17;;;;;;;10.33;3.93;;;1.70;56.10;;;;;;5110603;28;20243;-52
2021/03/20 14:15:04;;;;;;;2.57;1.67;;;1.20;55.00;;;;;;5125044;28;20566;-55
2021/03/20 14:17:51;;;;;;;13.57;5.17;;;1.30;57.10;;;;;;5125272;28;20238;-52
2021/03/20 14:20:40;;;;;;;11.27;4.40;;;1.60;56.00;;;;;;5118428;28;20248;-53
2021/03/20 14:23:27;;;;;;;4.73;1.50;;;1.90;56.40;;;;;;5108481;27;20319;-54
2021/03/20 14:26:14;;;;;;;11.73;4.20;;;2.30;54.40;;;;;;5123743;27;20226;-54
2021/03/20 14:29:02;;;;;;;3.93;1.83;;;3.70;54.40;;;;;;5123073;27;20191;-53
2021/03/20 14:31:49;;;;;;;10.00;4.07;;;5.90;51.50;;;;;;5126428;27;20195;-55
2021/03/20 14:34:36;;;;;;;14.17;4.57;;;6.80;49.80;;;;;;5123218;27;20645;-53
2021/03/20 14:37:23;;;;;;;7.63;3.60;;;7.10;47.60;;;;;;5119593;27;20963;-55
2021/03/20 14:40:12;;;;;;;10.03;3.90;;;6.90;45.90;;;;;;5125894;27;20196;-52
2021/03/20 14:42:59;;;;;;;13.60;4.23;;;7.40;45.60;;;;;;5125542;27;20194;-56
2021/03/20 14:45:47;;;;;;;12.23;5.20;;;6.20;44.60;;;;;;5116763;27;20668;-53
2021/03/20 14:48:35;;;;;;;14.80;5.43;;;5.30;48.00;;;;;;5110129;27;20368;-56